createdAt,value
2018-10-12T00:03:36.362Z,34.7
2018-10-12T00:13:35.580Z,34.8
2018-10-12T00:23:34.804Z,34.9
2018-10-12T00:33:34.034Z,34.9
2018-10-12T00:43:33.259Z,35
2018-10-12T00:53:32.523Z,35
2018-10-12T01:03:31.695Z,35.1
2018-10-12T01:13:30.917Z,35.1
2018-10-12T01:23:30.151Z,35.2
2018-10-12T01:33:29.368Z,35.2
2018-10-12T01:43:28.585Z,35.3
2018-10-12T01:53:27.863Z,35.3
2018-10-12T02:03:27.036Z,35.3
2018-10-12T02:13:26.258Z,35.3
2018-10-12T02:23:25.483Z,35.4
2018-10-12T02:33:24.698Z,35.4
2018-10-12T02:43:23.930Z,33
2018-10-12T02:53:23.143Z,29.2
2018-10-12T03:03:22.371Z,29.4
2018-10-12T03:13:21.595Z,29.5
2018-10-12T03:23:20.812Z,29.6
2018-10-12T03:33:20.036Z,29.8
2018-10-12T03:43:19.263Z,29.9
2018-10-12T03:53:18.492Z,28.7
2018-10-12T04:03:17.718Z,28.8
2018-10-12T04:13:16.938Z,28
2018-10-12T04:23:16.158Z,28.3
2018-10-12T04:33:15.389Z,28
2018-10-12T04:43:14.661Z,28.1
2018-10-12T04:53:13.836Z,28.2
2018-10-12T05:03:13.055Z,28.3
2018-10-12T05:13:12.281Z,28.3
2018-10-12T05:23:11.508Z,28.4
2018-10-12T05:33:10.726Z,28.5
2018-10-12T05:43:10.027Z,28.5
2018-10-12T05:53:09.174Z,28.6
2018-10-12T06:03:08.401Z,28.8
2018-10-12T06:13:07.623Z,29.3
2018-10-12T06:23:06.840Z,29.9
2018-10-12T06:33:06.344Z,30.7
2018-10-12T06:43:05.287Z,31.6
2018-10-12T06:53:04.509Z,32.3
2018-10-12T07:03:03.732Z,33.3
2018-10-12T07:13:02.955Z,34.3
2018-10-12T07:23:02.181Z,35.2
2018-10-12T07:33:01.409Z,36
2018-10-12T07:43:00.630Z,36.9
2018-10-12T07:52:59.857Z,37.8
2018-10-12T08:02:59.070Z,38.8
2018-10-12T08:12:58.294Z,39.7
2018-10-12T08:22:57.510Z,40.5
2018-10-12T08:32:56.756Z,41.3
2018-10-12T15:08:33.665Z,56.1
2018-10-12T15:18:32.883Z,55.9
2018-10-12T15:28:32.106Z,54.8
2018-10-12T15:38:31.358Z,54.4
2018-10-12T15:48:30.553Z,53.4
2018-10-12T15:58:29.776Z,51.3
2018-10-12T16:08:29.012Z,50.6
2018-10-12T16:18:28.298Z,45.3
2018-10-12T16:28:27.590Z,41.4
2018-10-12T16:38:26.887Z,41.3
2018-10-12T16:48:26.188Z,41.7
2018-10-12T16:58:25.591Z,38.6
2018-10-12T17:08:24.748Z,37.9
2018-10-12T17:18:24.048Z,35.7
2018-10-12T17:28:23.202Z,35.3
2018-10-12T17:38:22.427Z,34.4
2018-10-12T17:48:21.653Z,34.6
2018-10-12T17:58:20.877Z,34.5
2018-10-12T18:08:20.103Z,33.9
2018-10-12T18:18:19.328Z,34
2018-10-12T18:28:18.556Z,34.1
2018-10-12T18:38:17.778Z,34.3
2018-10-12T18:48:17.005Z,34.4
2018-10-12T18:58:16.234Z,34.6
2018-10-12T19:08:15.450Z,34.7
2018-10-12T19:18:14.680Z,34.5
2018-10-12T19:28:13.898Z,34.3
2018-10-12T19:38:13.128Z,32.5
2018-10-12T19:48:12.350Z,31.6
2018-10-12T19:58:11.573Z,30.1
2018-10-12T20:08:10.806Z,28.6
2018-10-12T20:18:10.025Z,28.7
2018-10-12T20:28:09.248Z,28.9
2018-10-12T20:38:08.475Z,29
2018-10-12T20:48:07.696Z,29.1
2018-10-12T20:58:06.922Z,29.3
2018-10-12T21:08:06.147Z,29.4
2018-10-12T21:18:05.441Z,29.5
2018-10-12T21:28:04.607Z,29.6
2018-10-12T21:38:03.814Z,29.6
2018-10-12T21:48:03.036Z,29.8
2018-10-12T21:58:02.260Z,29.8
2018-10-12T22:08:01.484Z,29.9
2018-10-12T22:18:00.706Z,30
2018-10-12T22:27:59.931Z,30.1
2018-10-12T22:37:59.153Z,30.1
2018-10-12T22:47:58.373Z,30.2
2018-10-12T22:57:57.601Z,30.3
2018-10-12T23:07:56.822Z,30.3
2018-10-12T23:17:56.039Z,30.3
2018-10-12T23:27:55.269Z,30.4
2018-10-12T23:37:54.494Z,30.4
2018-10-12T23:47:53.707Z,30.5
2018-10-12T23:57:52.934Z,30.6
